sensor_id;sensor_type;location;lat;lon;timestamp;P1;durP1;ratioP1;P2;durP2;ratioP2
81508;SDS011;70930;52.412;13.554;2023-07-28T00:01:47;4.07;;;3.67;;
81508;SDS011;70930;52.412;13.554;2023-07-28T00:04:39;3.20;;;2.28;;
81508;SDS011;70930;52.412;13.554;2023-07-28T00:07:27;4.93;;;3.28;;
81508;SDS011;70930;52.412;13.554;2023-07-28T00:10:13;4.40;;;2.92;;
81508;SDS011;70930;52.412;13.554;2023-07-28T00:13:00;4.63;;;2.78;;
81508;SDS011;70930;52.412;13.554;2023-07-28T00:15:47;2.72;;;2.45;;
81508;SDS011;70930;52.412;13.554;2023-07-28T00:18:39;2.63;;;2.20;;
81508;SDS011;70930;52.412;13.554;2023-07-28T00:21:28;4.28;;;2.38;;
81508;SDS011;70930;52.412;13.554;2023-07-28T00:24:14;3.22;;;2.53;;
81508;SDS011;70930;52.412;13.554;2023-07-28T00:26:59;3.33;;;2.92;;
81508;SDS011;70930;52.412;13.554;2023-07-28T00:29:45;3.85;;;2.50;;
81508;SDS011;70930;52.412;13.554;2023-07-28T00:32:33;3.83;;;2.97;;
81508;SDS011;70930;52.412;13.554;2023-07-28T00:35:22;3.13;;;2.60;;
81508;SDS011;70930;52.412;13.554;2023-07-28T00:38:10;3.80;;;2.25;;
81508;SDS011;70930;52.412;13.554;2023-07-28T00:40:56;3.13;;;2.70;;
81508;SDS011;70930;52.412;13.554;2023-07-28T00:43:47;5.43;;;3.17;;
81508;SDS011;70930;52.412;13.554;2023-07-28T00:46:38;3.60;;;2.25;;
81508;SDS011;70930;52.412;13.554;2023-07-28T00:49:27;4.35;;;2.42;;
81508;SDS011;70930;52.412;13.554;2023-07-28T00:52:12;2.95;;;2.65;;
81508;SDS011;70930;52.412;13.554;2023-07-28T00:54:58;2.72;;;2.00;;
81508;SDS011;70930;52.412;13.554;2023-07-28T00:57:44;2.42;;;1.73;;
81508;SDS011;70930;52.412;13.554;2023-07-28T01:00:30;5.40;;;2.30;;
81508;SDS011;70930;52.412;13.554;2023-07-28T01:03:17;2.70;;;2.20;;
81508;SDS011;70930;52.412;13.554;2023-07-28T01:06:10;3.75;;;2.72;;
81508;SDS011;70930;52.412;13.554;2023-07-28T01:08:58;3.10;;;2.17;;
81508;SDS011;70930;52.412;13.554;2023-07-28T01:11:53;5.18;;;3.08;;
81508;SDS011;70930;52.412;13.554;2023-07-28T01:14:39;3.50;;;2.67;;
81508;SDS011;70930;52.412;13.554;2023-07-28T01:17:24;2.58;;;1.95;;
81508;SDS011;70930;52.412;13.554;2023-07-28T01:20:10;3.17;;;2.08;;
81508;SDS011;70930;52.412;13.554;2023-07-28T01:26:02;3.53;;;2.75;;
81508;SDS011;70930;52.412;13.554;2023-07-28T01:28:51;5.78;;;2.20;;
81508;SDS011;70930;52.412;13.554;2023-07-28T01:31:37;3.28;;;1.67;;
81508;SDS011;70930;52.412;13.554;2023-07-28T01:37:09;3.92;;;1.90;;
81508;SDS011;70930;52.412;13.554;2023-07-28T01:40:01;6.32;;;2.80;;
81508;SDS011;70930;52.412;13.554;2023-07-28T01:42:50;3.28;;;2.55;;
81508;SDS011;70930;52.412;13.554;2023-07-28T01:45:41;4.90;;;2.10;;
81508;SDS011;70930;52.412;13.554;2023-07-28T01:48:38;5.15;;;2.20;;
81508;SDS011;70930;52.412;13.554;2023-07-28T01:51:24;2.70;;;1.80;;
81508;SDS011;70930;52.412;13.554;2023-07-28T01:54:12;2.22;;;1.80;;
81508;SDS011;70930;52.412;13.554;2023-07-28T01:56:58;2.85;;;2.55;;
81508;SDS011;70930;52.412;13.554;2023-07-28T01:59:43;3.97;;;2.83;;
81508;SDS011;70930;52.412;13.554;2023-07-28T02:02:29;5.80;;;2.15;;
81508;SDS011;70930;52.412;13.554;2023-07-28T02:05:17;5.20;;;3.35;;
81508;SDS011;70930;52.412;13.554;2023-07-28T02:08:06;4.10;;;2.85;;
81508;SDS011;70930;52.412;13.554;2023-07-28T02:10:53;5.57;;;2.30;;
81508;SDS011;70930;52.412;13.554;2023-07-28T02:13:41;3.13;;;2.35;;
81508;SDS011;70930;52.412;13.554;2023-07-28T02:16:29;3.40;;;2.33;;
81508;SDS011;70930;52.412;13.554;2023-07-28T02:19:18;3.17;;;2.33;;
81508;SDS011;70930;52.412;13.554;2023-07-28T02:22:04;4.85;;;2.80;;
81508;SDS011;70930;52.412;13.554;2023-07-28T02:24:53;6.78;;;2.53;;
81508;SDS011;70930;52.412;13.554;2023-07-28T02:27:38;2.88;;;2.25;;
81508;SDS011;70930;52.412;13.554;2023-07-28T02:30:24;7.07;;;3.28;;
81508;SDS011;70930;52.412;13.554;2023-07-28T02:33:12;3.08;;;2.25;;
81508;SDS011;70930;52.412;13.554;2023-07-28T02:35:57;6.78;;;3.35;;
81508;SDS011;70930;52.412;13.554;2023-07-28T02:38:43;4.97;;;2.45;;
81508;SDS011;70930;52.412;13.554;2023-07-28T02:41:29;3.20;;;2.25;;
81508;SDS011;70930;52.412;13.554;2023-07-28T02:44:14;3.20;;;2.38;;
81508;SDS011;70930;52.412;13.554;2023-07-28T02:47:00;4.00;;;2.42;;
81508;SDS011;70930;52.412;13.554;2023-07-28T02:49:46;4.32;;;2.42;;
81508;SDS011;70930;52.412;13.554;2023-07-28T02:52:40;4.20;;;2.42;;
81508;SDS011;70930;52.412;13.554;2023-07-28T02:55:25;5.57;;;2.08;;
81508;SDS011;70930;52.412;13.554;2023-07-28T02:58:13;2.92;;;2.22;;
81508;SDS011;70930;52.412;13.554;2023-07-28T03:00:59;4.63;;;2.72;;
81508;SDS011;70930;52.412;13.554;2023-07-28T03:03:45;3.80;;;2.40;;
81508;SDS011;70930;52.412;13.554;2023-07-28T03:06:32;3.65;;;2.47;;
81508;SDS011;70930;52.412;13.554;2023-07-28T03:09:20;4.85;;;2.53;;
81508;SDS011;70930;52.412;13.554;2023-07-28T03:12:08;6.43;;;2.58;;
81508;SDS011;70930;52.412;13.554;2023-07-28T03:14:56;5.97;;;3.03;;
81508;SDS011;70930;52.412;13.554;2023-07-28T03:17:42;2.25;;;2.00;;
81508;SDS011;70930;52.412;13.554;2023-07-28T03:20:41;3.33;;;2.42;;
81508;SDS011;70930;52.412;13.554;2023-07-28T03:23:40;4.70;;;2.47;;
81508;SDS011;70930;52.412;13.554;2023-07-28T03:26:25;5.03;;;2.40;;
81508;SDS011;70930;52.412;13.554;2023-07-28T03:29:14;3.55;;;2.72;;
81508;SDS011;70930;52.412;13.554;2023-07-28T03:32:03;2.63;;;2.00;;
81508;SDS011;70930;52.412;13.554;2023-07-28T03:34:49;4.38;;;2.92;;
81508;SDS011;70930;52.412;13.554;2023-07-28T03:37:34;6.60;;;2.95;;
81508;SDS011;70930;52.412;13.554;2023-07-28T03:40:19;5.28;;;2.67;;
81508;SDS011;70930;52.412;13.554;2023-07-28T03:43:05;3.50;;;2.63;;
81508;SDS011;70930;52.412;13.554;2023-07-28T03:45:50;6.05;;;3.05;;
81508;SDS011;70930;52.412;13.554;2023-07-28T03:48:36;4.85;;;3.47;;
81508;SDS011;70930;52.412;13.554;2023-07-28T03:51:21;5.05;;;3.20;;
81508;SDS011;70930;52.412;13.554;2023-07-28T03:54:07;5.95;;;3.15;;
81508;SDS011;70930;52.412;13.554;2023-07-28T03:56:52;4.03;;;3.25;;
81508;SDS011;70930;52.412;13.554;2023-07-28T03:59:38;5.00;;;3.05;;
81508;SDS011;70930;52.412;13.554;2023-07-28T04:02:23;6.93;;;3.22;;
81508;SDS011;70930;52.412;13.554;2023-07-28T04:05:09;6.93;;;3.50;;
81508;SDS011;70930;52.412;13.554;2023-07-28T04:07:54;6.32;;;3.53;;
81508;SDS011;70930;52.412;13.554;2023-07-28T04:10:40;5.18;;;3.58;;
81508;SDS011;70930;52.412;13.554;2023-07-28T04:13:25;5.43;;;3.33;;
81508;SDS011;70930;52.412;13.554;2023-07-28T04:16:10;3.70;;;3.20;;
81508;SDS011;70930;52.412;13.554;2023-07-28T04:18:56;5.28;;;3.35;;
81508;SDS011;70930;52.412;13.554;2023-07-28T04:21:42;6.90;;;3.38;;
81508;SDS011;70930;52.412;13.554;2023-07-28T04:24:28;6.88;;;4.22;;
81508;SDS011;70930;52.412;13.554;2023-07-28T04:27:13;4.85;;;3.88;;
81508;SDS011;70930;52.412;13.554;2023-07-28T04:29:59;9.30;;;4.20;;
81508;SDS011;70930;52.412;13.554;2023-07-28T04:32:44;8.07;;;3.50;;
81508;SDS011;70930;52.412;13.554;2023-07-28T04:35:30;7.30;;;4.05;;
81508;SDS011;70930;52.412;13.554;2023-07-28T04:38:15;5.43;;;3.88;;
81508;SDS011;70930;52.412;13.554;2023-07-28T04:41:02;8.38;;;3.85;;
81508;SDS011;70930;52.412;13.554;2023-07-28T04:43:47;10.20;;;4.90;;
81508;SDS011;70930;52.412;13.554;2023-07-28T04:46:33;7.43;;;4.60;;
81508;SDS011;70930;52.412;13.554;2023-07-28T04:49:18;7.32;;;4.63;;
81508;SDS011;70930;52.412;13.554;2023-07-28T04:52:06;7.90;;;4.63;;
81508;SDS011;70930;52.412;13.554;2023-07-28T04:54:52;8.60;;;4.78;;
81508;SDS011;70930;52.412;13.554;2023-07-28T04:57:37;6.20;;;4.47;;
81508;SDS011;70930;52.412;13.554;2023-07-28T05:00:23;5.68;;;3.90;;
81508;SDS011;70930;52.412;13.554;2023-07-28T05:03:08;11.13;;;4.80;;
81508;SDS011;70930;52.412;13.554;2023-07-28T05:05:54;7.55;;;3.72;;
81508;SDS011;70930;52.412;13.554;2023-07-28T05:08:39;5.90;;;4.40;;
81508;SDS011;70930;52.412;13.554;2023-07-28T05:11:24;5.47;;;4.05;;
81508;SDS011;70930;52.412;13.554;2023-07-28T05:14:10;6.90;;;4.38;;
81508;SDS011;70930;52.412;13.554;2023-07-28T05:16:55;10.73;;;5.07;;
81508;SDS011;70930;52.412;13.554;2023-07-28T05:19:40;5.35;;;3.97;;
81508;SDS011;70930;52.412;13.554;2023-07-28T05:22:26;6.15;;;3.20;;
81508;SDS011;70930;52.412;13.554;2023-07-28T05:25:11;5.88;;;3.67;;
81508;SDS011;70930;52.412;13.554;2023-07-28T05:27:57;6.78;;;4.40;;
81508;SDS011;70930;52.412;13.554;2023-07-28T05:30:42;4.88;;;3.70;;
81508;SDS011;70930;52.412;13.554;2023-07-28T05:33:27;6.00;;;3.78;;
81508;SDS011;70930;52.412;13.554;2023-07-28T05:36:13;7.55;;;3.70;;
81508;SDS011;70930;52.412;13.554;2023-07-28T05:38:58;5.75;;;3.42;;
81508;SDS011;70930;52.412;13.554;2023-07-28T05:41:44;5.70;;;3.90;;
81508;SDS011;70930;52.412;13.554;2023-07-28T05:44:29;5.53;;;4.07;;
81508;SDS011;70930;52.412;13.554;2023-07-28T05:47:15;4.53;;;4.03;;
81508;SDS011;70930;52.412;13.554;2023-07-28T05:50:00;6.05;;;4.68;;
81508;SDS011;70930;52.412;13.554;2023-07-28T05:52:45;5.07;;;3.55;;
81508;SDS011;70930;52.412;13.554;2023-07-28T05:55:32;4.80;;;3.67;;
81508;SDS011;70930;52.412;13.554;2023-07-28T05:58:17;7.32;;;4.20;;
81508;SDS011;70930;52.412;13.554;2023-07-28T06:01:03;5.28;;;3.95;;
81508;SDS011;70930;52.412;13.554;2023-07-28T06:03:48;4.68;;;3.63;;
81508;SDS011;70930;52.412;13.554;2023-07-28T06:06:34;5.75;;;3.65;;
81508;SDS011;70930;52.412;13.554;2023-07-28T06:09:19;3.92;;;3.53;;
81508;SDS011;70930;52.412;13.554;2023-07-28T06:12:04;4.93;;;3.53;;
81508;SDS011;70930;52.412;13.554;2023-07-28T06:14:50;7.47;;;4.22;;
81508;SDS011;70930;52.412;13.554;2023-07-28T06:17:35;4.57;;;3.40;;
81508;SDS011;70930;52.412;13.554;2023-07-28T06:20:21;4.70;;;3.88;;
81508;SDS011;70930;52.412;13.554;2023-07-28T06:23:07;5.03;;;3.70;;
81508;SDS011;70930;52.412;13.554;2023-07-28T06:25:53;6.97;;;4.00;;
81508;SDS011;70930;52.412;13.554;2023-07-28T06:28:39;4.85;;;3.75;;
81508;SDS011;70930;52.412;13.554;2023-07-28T06:31:25;5.45;;;3.75;;
81508;SDS011;70930;52.412;13.554;2023-07-28T06:34:10;5.45;;;3.53;;
81508;SDS011;70930;52.412;13.554;2023-07-28T06:36:56;3.63;;;2.95;;
81508;SDS011;70930;52.412;13.554;2023-07-28T06:39:41;3.15;;;2.85;;
81508;SDS011;70930;52.412;13.554;2023-07-28T06:42:26;6.57;;;3.05;;
81508;SDS011;70930;52.412;13.554;2023-07-28T06:45:12;6.28;;;3.50;;
81508;SDS011;70930;52.412;13.554;2023-07-28T06:47:59;4.60;;;3.40;;
81508;SDS011;70930;52.412;13.554;2023-07-28T06:50:44;5.40;;;3.67;;
81508;SDS011;70930;52.412;13.554;2023-07-28T06:53:30;4.30;;;3.20;;
81508;SDS011;70930;52.412;13.554;2023-07-28T06:56:15;5.40;;;3.40;;
81508;SDS011;70930;52.412;13.554;2023-07-28T06:59:00;3.85;;;3.05;;
81508;SDS011;70930;52.412;13.554;2023-07-28T07:01:46;3.92;;;2.97;;
81508;SDS011;70930;52.412;13.554;2023-07-28T07:04:31;4.43;;;3.45;;
81508;SDS011;70930;52.412;13.554;2023-07-28T07:07:17;3.55;;;2.80;;
81508;SDS011;70930;52.412;13.554;2023-07-28T07:10:02;3.55;;;2.75;;
81508;SDS011;70930;52.412;13.554;2023-07-28T07:12:49;5.40;;;3.28;;
81508;SDS011;70930;52.412;13.554;2023-07-28T07:15:34;3.25;;;2.95;;
81508;SDS011;70930;52.412;13.554;2023-07-28T07:18:20;4.55;;;3.25;;
81508;SDS011;70930;52.412;13.554;2023-07-28T07:21:06;5.18;;;3.47;;
81508;SDS011;70930;52.412;13.554;2023-07-28T07:23:51;4.90;;;3.25;;
81508;SDS011;70930;52.412;13.554;2023-07-28T07:26:36;4.20;;;2.80;;
81508;SDS011;70930;52.412;13.554;2023-07-28T07:29:22;2.80;;;2.50;;
81508;SDS011;70930;52.412;13.554;2023-07-28T07:32:07;4.38;;;2.53;;
81508;SDS011;70930;52.412;13.554;2023-07-28T07:34:54;4.53;;;2.65;;
81508;SDS011;70930;52.412;13.554;2023-07-28T07:37:40;3.25;;;2.22;;
81508;SDS011;70930;52.412;13.554;2023-07-28T07:40:25;2.85;;;2.50;;
81508;SDS011;70930;52.412;13.554;2023-07-28T07:43:11;3.03;;;2.60;;
81508;SDS011;70930;52.412;13.554;2023-07-28T07:45:56;2.80;;;2.25;;
81508;SDS011;70930;52.412;13.554;2023-07-28T07:48:42;2.85;;;1.83;;
81508;SDS011;70930;52.412;13.554;2023-07-28T07:51:27;2.83;;;1.90;;
81508;SDS011;70930;52.412;13.554;2023-07-28T07:54:12;2.20;;;2.00;;
81508;SDS011;70930;52.412;13.554;2023-07-28T07:57:00;2.15;;;1.95;;
81508;SDS011;70930;52.412;13.554;2023-07-28T08:02:33;4.35;;;2.35;;
81508;SDS011;70930;52.412;13.554;2023-07-28T08:05:18;4.63;;;1.70;;
81508;SDS011;70930;52.412;13.554;2023-07-28T08:08:04;2.40;;;1.90;;
81508;SDS011;70930;52.412;13.554;2023-07-28T08:10:52;2.33;;;2.00;;
81508;SDS011;70930;52.412;13.554;2023-07-28T08:13:37;2.35;;;2.15;;
81508;SDS011;70930;52.412;13.554;2023-07-28T08:16:23;2.42;;;2.10;;
81508;SDS011;70930;52.412;13.554;2023-07-28T08:19:08;3.05;;;1.90;;
81508;SDS011;70930;52.412;13.554;2023-07-28T08:21:54;3.55;;;2.03;;
81508;SDS011;70930;52.412;13.554;2023-07-28T08:24:40;1.55;;;1.45;;
81508;SDS011;70930;52.412;13.554;2023-07-28T08:27:25;2.67;;;2.15;;
81508;SDS011;70930;52.412;13.554;2023-07-28T08:30:11;1.98;;;1.80;;
81508;SDS011;70930;52.412;13.554;2023-07-28T08:32:56;2.05;;;1.77;;
81508;SDS011;70930;52.412;13.554;2023-07-28T08:35:42;3.30;;;1.80;;
81508;SDS011;70930;52.412;13.554;2023-07-28T08:38:27;2.17;;;1.65;;
81508;SDS011;70930;52.412;13.554;2023-07-28T08:41:13;2.58;;;1.83;;
81508;SDS011;70930;52.412;13.554;2023-07-28T08:43:59;1.50;;;1.40;;
81508;SDS011;70930;52.412;13.554;2023-07-28T08:46:44;1.90;;;1.60;;
81508;SDS011;70930;52.412;13.554;2023-07-28T08:49:33;2.88;;;1.83;;
81508;SDS011;70930;52.412;13.554;2023-07-28T08:52:21;2.53;;;1.13;;
81508;SDS011;70930;52.412;13.554;2023-07-28T08:55:06;2.25;;;1.40;;
81508;SDS011;70930;52.412;13.554;2023-07-28T08:57:52;4.35;;;1.58;;
81508;SDS011;70930;52.412;13.554;2023-07-28T09:00:38;1.77;;;1.33;;
81508;SDS011;70930;52.412;13.554;2023-07-28T09:03:23;1.83;;;1.63;;
81508;SDS011;70930;52.412;13.554;2023-07-28T09:06:12;3.20;;;1.50;;
81508;SDS011;70930;52.412;13.554;2023-07-28T09:08:58;1.50;;;1.40;;
81508;SDS011;70930;52.412;13.554;2023-07-28T09:11:46;1.60;;;1.40;;
81508;SDS011;70930;52.412;13.554;2023-07-28T09:14:34;1.40;;;1.30;;
81508;SDS011;70930;52.412;13.554;2023-07-28T09:17:21;2.65;;;1.25;;
81508;SDS011;70930;52.412;13.554;2023-07-28T09:20:07;3.70;;;2.17;;
81508;SDS011;70930;52.412;13.554;2023-07-28T09:22:59;3.28;;;1.35;;
81508;SDS011;70930;52.412;13.554;2023-07-28T09:25:44;1.52;;;1.42;;
81508;SDS011;70930;52.412;13.554;2023-07-28T09:28:36;2.22;;;1.35;;
81508;SDS011;70930;52.412;13.554;2023-07-28T09:31:29;1.85;;;1.42;;
81508;SDS011;70930;52.412;13.554;2023-07-28T09:34:25;2.17;;;1.50;;
81508;SDS011;70930;52.412;13.554;2023-07-28T09:37:12;1.55;;;1.38;;
81508;SDS011;70930;52.412;13.554;2023-07-28T09:39:58;1.90;;;1.52;;
81508;SDS011;70930;52.412;13.554;2023-07-28T09:42:45;2.42;;;2.20;;
81508;SDS011;70930;52.412;13.554;2023-07-28T09:45:34;2.83;;;1.40;;
81508;SDS011;70930;52.412;13.554;2023-07-28T09:48:21;1.48;;;1.35;;
81508;SDS011;70930;52.412;13.554;2023-07-28T09:51:28;2.47;;;1.60;;
81508;SDS011;70930;52.412;13.554;2023-07-28T09:54:27;3.13;;;1.80;;
81508;SDS011;70930;52.412;13.554;2023-07-28T09:57:16;3.28;;;1.60;;
81508;SDS011;70930;52.412;13.554;2023-07-28T10:00:07;1.70;;;1.60;;
81508;SDS011;70930;52.412;13.554;2023-07-28T10:02:55;2.20;;;1.85;;
81508;SDS011;70930;52.412;13.554;2023-07-28T10:05:41;1.98;;;1.63;;
81508;SDS011;70930;52.412;13.554;2023-07-28T10:08:27;2.95;;;1.80;;
81508;SDS011;70930;52.412;13.554;2023-07-28T10:11:15;2.30;;;2.10;;
81508;SDS011;70930;52.412;13.554;2023-07-28T10:14:01;2.22;;;2.00;;
81508;SDS011;70930;52.412;13.554;2023-07-28T10:16:46;1.60;;;1.50;;
81508;SDS011;70930;52.412;13.554;2023-07-28T10:19:35;1.60;;;1.42;;
81508;SDS011;70930;52.412;13.554;2023-07-28T10:22:21;2.00;;;1.70;;
81508;SDS011;70930;52.412;13.554;2023-07-28T10:25:07;1.85;;;1.38;;
81508;SDS011;70930;52.412;13.554;2023-07-28T10:27:53;2.30;;;2.10;;
81508;SDS011;70930;52.412;13.554;2023-07-28T10:30:51;2.22;;;1.92;;
81508;SDS011;70930;52.412;13.554;2023-07-28T10:33:38;1.90;;;1.77;;
81508;SDS011;70930;52.412;13.554;2023-07-28T10:39:16;2.25;;;2.05;;
81508;SDS011;70930;52.412;13.554;2023-07-28T10:42:03;3.33;;;1.92;;
81508;SDS011;70930;52.412;13.554;2023-07-28T10:44:51;2.10;;;1.63;;
81508;SDS011;70930;52.412;13.554;2023-07-28T10:47:36;3.83;;;2.30;;
81508;SDS011;70930;52.412;13.554;2023-07-28T10:50:22;2.20;;;1.80;;
81508;SDS011;70930;52.412;13.554;2023-07-28T10:53:08;3.97;;;2.25;;
81508;SDS011;70930;52.412;13.554;2023-07-28T10:55:56;3.00;;;2.33;;
81508;SDS011;70930;52.412;13.554;2023-07-28T10:58:41;3.28;;;2.17;;
81508;SDS011;70930;52.412;13.554;2023-07-28T11:01:30;4.60;;;2.92;;
81508;SDS011;70930;52.412;13.554;2023-07-28T11:04:19;3.15;;;2.20;;
81508;SDS011;70930;52.412;13.554;2023-07-28T11:07:05;2.47;;;2.28;;
81508;SDS011;70930;52.412;13.554;2023-07-28T11:09:52;2.65;;;2.00;;
81508;SDS011;70930;52.412;13.554;2023-07-28T11:12:46;2.45;;;1.90;;
81508;SDS011;70930;52.412;13.554;2023-07-28T11:15:33;1.92;;;1.80;;
81508;SDS011;70930;52.412;13.554;2023-07-28T11:18:19;2.00;;;1.88;;
81508;SDS011;70930;52.412;13.554;2023-07-28T11:21:04;1.95;;;1.63;;
81508;SDS011;70930;52.412;13.554;2023-07-28T11:23:50;1.67;;;1.58;;
81508;SDS011;70930;52.412;13.554;2023-07-28T11:26:36;1.85;;;1.52;;
81508;SDS011;70930;52.412;13.554;2023-07-28T11:29:23;2.15;;;1.95;;
81508;SDS011;70930;52.412;13.554;2023-07-28T11:32:08;2.03;;;1.92;;
81508;SDS011;70930;52.412;13.554;2023-07-28T11:34:54;2.17;;;2.00;;
81508;SDS011;70930;52.412;13.554;2023-07-28T11:37:44;2.25;;;2.05;;
81508;SDS011;70930;52.412;13.554;2023-07-28T11:40:31;1.90;;;1.70;;
81508;SDS011;70930;52.412;13.554;2023-07-28T11:46:03;1.80;;;1.60;;
81508;SDS011;70930;52.412;13.554;2023-07-28T11:48:48;3.22;;;1.73;;
81508;SDS011;70930;52.412;13.554;2023-07-28T11:51:38;2.53;;;1.20;;
81508;SDS011;70930;52.412;13.554;2023-07-28T11:54:25;1.52;;;1.42;;
81508;SDS011;70930;52.412;13.554;2023-07-28T11:57:12;2.05;;;1.63;;
81508;SDS011;70930;52.412;13.554;2023-07-28T11:59:58;2.33;;;1.63;;
81508;SDS011;70930;52.412;13.554;2023-07-28T12:02:44;2.83;;;1.63;;
81508;SDS011;70930;52.412;13.554;2023-07-28T12:05:30;1.90;;;1.60;;
81508;SDS011;70930;52.412;13.554;2023-07-28T12:08:16;2.65;;;1.73;;
81508;SDS011;70930;52.412;13.554;2023-07-28T12:11:20;3.00;;;1.60;;
81508;SDS011;70930;52.412;13.554;2023-07-28T12:14:05;1.65;;;1.45;;
81508;SDS011;70930;52.412;13.554;2023-07-28T12:16:51;1.90;;;1.70;;
81508;SDS011;70930;52.412;13.554;2023-07-28T12:19:40;2.53;;;1.58;;
81508;SDS011;70930;52.412;13.554;2023-07-28T12:22:47;2.47;;;2.17;;
81508;SDS011;70930;52.412;13.554;2023-07-28T12:25:33;2.53;;;1.67;;
81508;SDS011;70930;52.412;13.554;2023-07-28T12:28:18;3.15;;;1.73;;
81508;SDS011;70930;52.412;13.554;2023-07-28T12:31:04;2.45;;;2.00;;
81508;SDS011;70930;52.412;13.554;2023-07-28T12:33:49;2.17;;;1.98;;
81508;SDS011;70930;52.412;13.554;2023-07-28T12:36:35;2.50;;;1.80;;
81508;SDS011;70930;52.412;13.554;2023-07-28T12:39:20;2.28;;;1.80;;
81508;SDS011;70930;52.412;13.554;2023-07-28T12:42:09;2.30;;;1.83;;
81508;SDS011;70930;52.412;13.554;2023-07-28T12:44:55;1.65;;;1.50;;
81508;SDS011;70930;52.412;13.554;2023-07-28T12:47:41;3.08;;;2.20;;
81508;SDS011;70930;52.412;13.554;2023-07-28T12:50:27;1.50;;;1.30;;
81508;SDS011;70930;52.412;13.554;2023-07-28T12:53:12;2.13;;;1.70;;
81508;SDS011;70930;52.412;13.554;2023-07-28T12:55:58;1.80;;;1.70;;
81508;SDS011;70930;52.412;13.554;2023-07-28T12:58:43;2.13;;;1.92;;
81508;SDS011;70930;52.412;13.554;2023-07-28T13:01:29;2.90;;;2.53;;
81508;SDS011;70930;52.412;13.554;2023-07-28T13:04:14;2.60;;;2.40;;
81508;SDS011;70930;52.412;13.554;2023-07-28T13:06:59;2.22;;;2.03;;
81508;SDS011;70930;52.412;13.554;2023-07-28T13:09:45;2.35;;;2.05;;
81508;SDS011;70930;52.412;13.554;2023-07-28T13:12:30;2.55;;;2.08;;
81508;SDS011;70930;52.412;13.554;2023-07-28T13:15:16;3.15;;;2.58;;
81508;SDS011;70930;52.412;13.554;2023-07-28T13:18:01;3.15;;;2.40;;
81508;SDS011;70930;52.412;13.554;2023-07-28T13:20:46;2.22;;;2.03;;
81508;SDS011;70930;52.412;13.554;2023-07-28T13:23:32;2.28;;;2.03;;
81508;SDS011;70930;52.412;13.554;2023-07-28T13:26:18;2.28;;;1.98;;
81508;SDS011;70930;52.412;13.554;2023-07-28T13:29:03;2.15;;;1.95;;
81508;SDS011;70930;52.412;13.554;2023-07-28T13:31:56;1.88;;;1.65;;
81508;SDS011;70930;52.412;13.554;2023-07-28T13:34:43;1.95;;;1.67;;
81508;SDS011;70930;52.412;13.554;2023-07-28T13:37:29;2.13;;;1.92;;
81508;SDS011;70930;52.412;13.554;2023-07-28T13:40:15;2.67;;;1.88;;
81508;SDS011;70930;52.412;13.554;2023-07-28T13:43:00;1.90;;;1.80;;
81508;SDS011;70930;52.412;13.554;2023-07-28T13:45:46;2.15;;;1.60;;
81508;SDS011;70930;52.412;13.554;2023-07-28T13:48:31;3.05;;;1.98;;
81508;SDS011;70930;52.412;13.554;2023-07-28T13:51:17;3.60;;;2.10;;
81508;SDS011;70930;52.412;13.554;2023-07-28T13:54:02;2.10;;;1.90;;
81508;SDS011;70930;52.412;13.554;2023-07-28T13:56:48;2.75;;;2.22;;
81508;SDS011;70930;52.412;13.554;2023-07-28T13:59:33;1.88;;;1.70;;
81508;SDS011;70930;52.412;13.554;2023-07-28T14:02:19;2.20;;;2.00;;
81508;SDS011;70930;52.412;13.554;2023-07-28T14:05:04;3.90;;;2.33;;
81508;SDS011;70930;52.412;13.554;2023-07-28T14:07:51;2.33;;;1.90;;
81508;SDS011;70930;52.412;13.554;2023-07-28T14:10:36;2.20;;;1.92;;
81508;SDS011;70930;52.412;13.554;2023-07-28T14:13:23;3.33;;;1.75;;
81508;SDS011;70930;52.412;13.554;2023-07-28T14:16:08;2.88;;;1.75;;
81508;SDS011;70930;52.412;13.554;2023-07-28T14:18:55;1.77;;;1.67;;
81508;SDS011;70930;52.412;13.554;2023-07-28T14:21:40;2.35;;;1.50;;
81508;SDS011;70930;52.412;13.554;2023-07-28T14:24:27;1.55;;;1.45;;
81508;SDS011;70930;52.412;13.554;2023-07-28T14:27:13;1.55;;;1.40;;
81508;SDS011;70930;52.412;13.554;2023-07-28T14:29:58;2.25;;;1.70;;
81508;SDS011;70930;52.412;13.554;2023-07-28T14:32:43;2.38;;;1.52;;
81508;SDS011;70930;52.412;13.554;2023-07-28T14:35:29;2.90;;;1.30;;
81508;SDS011;70930;52.412;13.554;2023-07-28T14:38:14;2.00;;;1.90;;
81508;SDS011;70930;52.412;13.554;2023-07-28T14:41:00;1.75;;;1.65;;
81508;SDS011;70930;52.412;13.554;2023-07-28T14:43:45;2.45;;;1.77;;
81508;SDS011;70930;52.412;13.554;2023-07-28T14:46:31;1.98;;;1.65;;
81508;SDS011;70930;52.412;13.554;2023-07-28T14:49:16;2.70;;;1.58;;
81508;SDS011;70930;52.412;13.554;2023-07-28T14:52:01;1.85;;;1.75;;
81508;SDS011;70930;52.412;13.554;2023-07-28T14:54:47;2.20;;;2.00;;
81508;SDS011;70930;52.412;13.554;2023-07-28T14:57:32;1.92;;;1.83;;
81508;SDS011;70930;52.412;13.554;2023-07-28T15:00:18;2.08;;;1.88;;
81508;SDS011;70930;52.412;13.554;2023-07-28T15:03:03;2.40;;;2.05;;
81508;SDS011;70930;52.412;13.554;2023-07-28T15:05:49;2.10;;;1.90;;
81508;SDS011;70930;52.412;13.554;2023-07-28T15:08:34;3.08;;;2.00;;
81508;SDS011;70930;52.412;13.554;2023-07-28T15:11:20;2.33;;;1.90;;
81508;SDS011;70930;52.412;13.554;2023-07-28T15:14:05;2.38;;;2.17;;
81508;SDS011;70930;52.412;13.554;2023-07-28T15:16:52;2.20;;;1.77;;
81508;SDS011;70930;52.412;13.554;2023-07-28T15:19:37;2.00;;;1.80;;
81508;SDS011;70930;52.412;13.554;2023-07-28T15:22:23;2.38;;;2.17;;
81508;SDS011;70930;52.412;13.554;2023-07-28T15:25:08;2.47;;;2.28;;
81508;SDS011;70930;52.412;13.554;2023-07-28T15:27:54;2.20;;;2.00;;
81508;SDS011;70930;52.412;13.554;2023-07-28T15:30:39;3.22;;;2.25;;
81508;SDS011;70930;52.412;13.554;2023-07-28T15:33:25;2.80;;;2.08;;
81508;SDS011;70930;52.412;13.554;2023-07-28T15:36:13;2.13;;;1.80;;
81508;SDS011;70930;52.412;13.554;2023-07-28T15:38:59;2.58;;;2.38;;
81508;SDS011;70930;52.412;13.554;2023-07-28T15:41:44;3.03;;;2.15;;
81508;SDS011;70930;52.412;13.554;2023-07-28T15:44:30;2.88;;;2.58;;
81508;SDS011;70930;52.412;13.554;2023-07-28T15:47:15;2.55;;;2.05;;
81508;SDS011;70930;52.412;13.554;2023-07-28T15:50:00;2.35;;;2.10;;
81508;SDS011;70930;52.412;13.554;2023-07-28T15:52:46;3.75;;;2.45;;
81508;SDS011;70930;52.412;13.554;2023-07-28T15:55:31;3.15;;;2.33;;
81508;SDS011;70930;52.412;13.554;2023-07-28T15:58:18;2.53;;;2.33;;
81508;SDS011;70930;52.412;13.554;2023-07-28T16:01:04;2.58;;;2.15;;
81508;SDS011;70930;52.412;13.554;2023-07-28T16:03:51;3.22;;;2.15;;
81508;SDS011;70930;52.412;13.554;2023-07-28T16:06:37;2.33;;;2.13;;
81508;SDS011;70930;52.412;13.554;2023-07-28T16:09:22;2.90;;;2.60;;
81508;SDS011;70930;52.412;13.554;2023-07-28T16:12:08;2.65;;;2.40;;
81508;SDS011;70930;52.412;13.554;2023-07-28T16:14:53;3.67;;;2.50;;
81508;SDS011;70930;52.412;13.554;2023-07-28T16:17:39;2.92;;;2.60;;
81508;SDS011;70930;52.412;13.554;2023-07-28T16:20:25;2.85;;;2.47;;
81508;SDS011;70930;52.412;13.554;2023-07-28T16:23:10;2.90;;;2.38;;
81508;SDS011;70930;52.412;13.554;2023-07-28T16:25:55;2.53;;;2.33;;
81508;SDS011;70930;52.412;13.554;2023-07-28T16:28:41;3.30;;;3.00;;
81508;SDS011;70930;52.412;13.554;2023-07-28T16:31:26;4.10;;;3.10;;
81508;SDS011;70930;52.412;13.554;2023-07-28T16:34:12;3.40;;;2.95;;
81508;SDS011;70930;52.412;13.554;2023-07-28T16:36:57;3.03;;;2.50;;
81508;SDS011;70930;52.412;13.554;2023-07-28T16:39:43;3.10;;;2.80;;
81508;SDS011;70930;52.412;13.554;2023-07-28T16:42:28;3.33;;;3.03;;